sensor_id;sensor_type;location;lat;lon;timestamp;P1;durP1;ratioP1;P2;durP2;ratioP2
42754;SDS011;28407;51.830;5.684;2023-08-30T00:01:30;3.88;;;2.70;;
42754;SDS011;28407;51.830;5.684;2023-08-30T00:03:31;3.95;;;2.75;;
42754;SDS011;28407;51.830;5.684;2023-08-30T00:05:32;4.65;;;2.50;;
42754;SDS011;28407;51.830;5.684;2023-08-30T00:07:33;2.75;;;2.25;;
42754;SDS011;28407;51.830;5.684;2023-08-30T00:09:34;3.63;;;2.80;;
42754;SDS011;28407;51.830;5.684;2023-08-30T00:11:36;3.70;;;2.60;;
42754;SDS011;28407;51.830;5.684;2023-08-30T00:13:36;5.93;;;2.70;;
42754;SDS011;28407;51.830;5.684;2023-08-30T00:15:37;3.10;;;2.10;;
42754;SDS011;28407;51.830;5.684;2023-08-30T00:17:38;3.75;;;2.70;;
42754;SDS011;28407;51.830;5.684;2023-08-30T00:19:39;4.47;;;2.92;;
42754;SDS011;28407;51.830;5.684;2023-08-30T00:21:39;4.00;;;2.63;;
42754;SDS011;28407;51.830;5.684;2023-08-30T00:23:40;3.20;;;2.40;;
42754;SDS011;28407;51.830;5.684;2023-08-30T00:25:41;4.07;;;2.80;;
42754;SDS011;28407;51.830;5.684;2023-08-30T00:27:41;3.70;;;2.58;;
42754;SDS011;28407;51.830;5.684;2023-08-30T00:29:42;3.33;;;2.58;;
42754;SDS011;28407;51.830;5.684;2023-08-30T00:31:43;3.05;;;2.30;;
42754;SDS011;28407;51.830;5.684;2023-08-30T00:33:44;3.35;;;2.30;;
42754;SDS011;28407;51.830;5.684;2023-08-30T00:37:46;3.20;;;2.40;;
42754;SDS011;28407;51.830;5.684;2023-08-30T00:39:47;2.78;;;2.15;;
42754;SDS011;28407;51.830;5.684;2023-08-30T00:41:48;3.67;;;2.88;;
42754;SDS011;28407;51.830;5.684;2023-08-30T00:43:48;3.88;;;2.58;;
42754;SDS011;28407;51.830;5.684;2023-08-30T00:45:49;3.45;;;2.60;;
42754;SDS011;28407;51.830;5.684;2023-08-30T00:47:50;3.40;;;2.38;;
42754;SDS011;28407;51.830;5.684;2023-08-30T00:49:51;3.30;;;2.70;;
42754;SDS011;28407;51.830;5.684;2023-08-30T00:51:52;3.70;;;2.80;;
42754;SDS011;28407;51.830;5.684;2023-08-30T00:55:55;3.70;;;2.10;;
42754;SDS011;28407;51.830;5.684;2023-08-30T00:57:56;3.83;;;2.42;;
42754;SDS011;28407;51.830;5.684;2023-08-30T00:59:57;3.95;;;2.42;;
42754;SDS011;28407;51.830;5.684;2023-08-30T01:01:58;3.23;;;2.33;;
42754;SDS011;28407;51.830;5.684;2023-08-30T01:04:01;3.92;;;2.63;;
42754;SDS011;28407;51.830;5.684;2023-08-30T01:06:02;4.07;;;2.70;;
42754;SDS011;28407;51.830;5.684;2023-08-30T01:08:03;3.35;;;3.03;;
42754;SDS011;28407;51.830;5.684;2023-08-30T01:10:05;3.70;;;2.50;;
42754;SDS011;28407;51.830;5.684;2023-08-30T01:12:10;4.07;;;2.03;;
42754;SDS011;28407;51.830;5.684;2023-08-30T01:14:30;3.10;;;2.30;;
42754;SDS011;28407;51.830;5.684;2023-08-30T01:16:43;6.07;;;3.88;;
42754;SDS011;28407;51.830;5.684;2023-08-30T01:18:44;4.82;;;2.63;;
42754;SDS011;28407;51.830;5.684;2023-08-30T01:20:46;3.50;;;2.55;;
42754;SDS011;28407;51.830;5.684;2023-08-30T01:22:57;4.30;;;2.88;;
42754;SDS011;28407;51.830;5.684;2023-08-30T01:27:33;3.67;;;3.08;;
42754;SDS011;28407;51.830;5.684;2023-08-30T01:29:36;3.70;;;2.50;;
42754;SDS011;28407;51.830;5.684;2023-08-30T01:31:40;4.53;;;2.67;;
42754;SDS011;28407;51.830;5.684;2023-08-30T01:33:42;5.13;;;3.47;;
42754;SDS011;28407;51.830;5.684;2023-08-30T01:35:43;4.00;;;2.80;;
42754;SDS011;28407;51.830;5.684;2023-08-30T01:37:45;5.35;;;3.47;;
42754;SDS011;28407;51.830;5.684;2023-08-30T01:39:46;3.85;;;2.95;;
42754;SDS011;28407;51.830;5.684;2023-08-30T01:41:47;4.87;;;3.23;;
42754;SDS011;28407;51.830;5.684;2023-08-30T01:43:49;5.93;;;3.35;;
42754;SDS011;28407;51.830;5.684;2023-08-30T01:45:52;3.88;;;3.17;;
42754;SDS011;28407;51.830;5.684;2023-08-30T01:47:54;4.95;;;3.50;;
42754;SDS011;28407;51.830;5.684;2023-08-30T01:49:59;4.38;;;3.00;;
42754;SDS011;28407;51.830;5.684;2023-08-30T01:52:00;4.75;;;3.58;;
42754;SDS011;28407;51.830;5.684;2023-08-30T01:54:01;4.90;;;4.07;;
42754;SDS011;28407;51.830;5.684;2023-08-30T01:56:03;4.90;;;3.40;;
42754;SDS011;28407;51.830;5.684;2023-08-30T01:58:05;4.80;;;3.35;;
42754;SDS011;28407;51.830;5.684;2023-08-30T02:00:06;4.93;;;3.38;;
42754;SDS011;28407;51.830;5.684;2023-08-30T02:02:16;7.65;;;3.65;;
42754;SDS011;28407;51.830;5.684;2023-08-30T02:04:16;4.40;;;3.35;;
42754;SDS011;28407;51.830;5.684;2023-08-30T02:06:21;5.82;;;3.30;;
42754;SDS011;28407;51.830;5.684;2023-08-30T02:08:32;4.45;;;3.42;;
42754;SDS011;28407;51.830;5.684;2023-08-30T02:12:48;4.95;;;3.50;;
42754;SDS011;28407;51.830;5.684;2023-08-30T02:14:52;5.10;;;3.95;;
42754;SDS011;28407;51.830;5.684;2023-08-30T02:16:55;5.10;;;4.07;;
42754;SDS011;28407;51.830;5.684;2023-08-30T02:18:56;6.50;;;4.13;;
42754;SDS011;28407;51.830;5.684;2023-08-30T02:20:57;5.65;;;3.80;;
42754;SDS011;28407;51.830;5.684;2023-08-30T02:22:58;5.20;;;3.97;;
42754;SDS011;28407;51.830;5.684;2023-08-30T02:25:00;5.35;;;3.97;;
42754;SDS011;28407;51.830;5.684;2023-08-30T02:27:04;5.15;;;4.00;;
42754;SDS011;28407;51.830;5.684;2023-08-30T02:29:05;5.97;;;3.80;;
42754;SDS011;28407;51.830;5.684;2023-08-30T02:31:06;5.65;;;4.28;;
42754;SDS011;28407;51.830;5.684;2023-08-30T02:33:06;4.97;;;3.67;;
42754;SDS011;28407;51.830;5.684;2023-08-30T02:35:07;5.03;;;3.88;;
42754;SDS011;28407;51.830;5.684;2023-08-30T02:37:08;5.95;;;3.90;;
42754;SDS011;28407;51.830;5.684;2023-08-30T02:39:11;5.45;;;3.85;;
42754;SDS011;28407;51.830;5.684;2023-08-30T02:41:12;5.00;;;3.85;;
42754;SDS011;28407;51.830;5.684;2023-08-30T02:43:14;7.82;;;3.92;;
42754;SDS011;28407;51.830;5.684;2023-08-30T02:45:15;5.28;;;3.92;;
42754;SDS011;28407;51.830;5.684;2023-08-30T02:47:15;6.00;;;3.95;;
42754;SDS011;28407;51.830;5.684;2023-08-30T02:49:16;6.45;;;4.13;;
42754;SDS011;28407;51.830;5.684;2023-08-30T02:51:18;5.68;;;4.07;;
42754;SDS011;28407;51.830;5.684;2023-08-30T02:53:19;5.68;;;3.50;;
42754;SDS011;28407;51.830;5.684;2023-08-30T02:55:19;7.15;;;3.88;;
42754;SDS011;28407;51.830;5.684;2023-08-30T02:57:20;7.05;;;4.70;;
42754;SDS011;28407;51.830;5.684;2023-08-30T02:59:21;5.75;;;4.10;;
42754;SDS011;28407;51.830;5.684;2023-08-30T03:01:21;5.10;;;3.70;;
42754;SDS011;28407;51.830;5.684;2023-08-30T03:03:23;5.60;;;4.20;;
42754;SDS011;28407;51.830;5.684;2023-08-30T03:05:24;7.63;;;4.43;;
42754;SDS011;28407;51.830;5.684;2023-08-30T03:07:24;5.38;;;4.03;;
42754;SDS011;28407;51.830;5.684;2023-08-30T03:09:27;5.75;;;4.43;;
42754;SDS011;28407;51.830;5.684;2023-08-30T03:11:28;5.40;;;3.83;;
42754;SDS011;28407;51.830;5.684;2023-08-30T03:13:29;5.13;;;3.78;;
42754;SDS011;28407;51.830;5.684;2023-08-30T03:15:32;6.55;;;4.00;;
42754;SDS011;28407;51.830;5.684;2023-08-30T03:17:36;4.57;;;3.67;;
42754;SDS011;28407;51.830;5.684;2023-08-30T03:19:37;5.78;;;4.28;;
42754;SDS011;28407;51.830;5.684;2023-08-30T03:21:38;5.75;;;4.47;;
42754;SDS011;28407;51.830;5.684;2023-08-30T03:23:41;7.85;;;4.95;;
42754;SDS011;28407;51.830;5.684;2023-08-30T03:27:44;5.07;;;3.58;;
42754;SDS011;28407;51.830;5.684;2023-08-30T03:29:44;5.82;;;3.92;;
42754;SDS011;28407;51.830;5.684;2023-08-30T03:31:47;5.45;;;3.83;;
42754;SDS011;28407;51.830;5.684;2023-08-30T03:33:48;5.00;;;3.97;;
42754;SDS011;28407;51.830;5.684;2023-08-30T03:35:49;5.18;;;3.40;;
42754;SDS011;28407;51.830;5.684;2023-08-30T03:37:50;5.05;;;3.78;;
42754;SDS011;28407;51.830;5.684;2023-08-30T03:39:51;5.38;;;3.67;;
42754;SDS011;28407;51.830;5.684;2023-08-30T03:41:51;4.68;;;3.67;;
42754;SDS011;28407;51.830;5.684;2023-08-30T03:43:52;5.53;;;4.35;;
42754;SDS011;28407;51.830;5.684;2023-08-30T03:45:53;5.38;;;3.78;;
42754;SDS011;28407;51.830;5.684;2023-08-30T03:47:54;5.55;;;3.83;;
42754;SDS011;28407;51.830;5.684;2023-08-30T03:49:54;5.55;;;4.40;;
42754;SDS011;28407;51.830;5.684;2023-08-30T03:51:55;5.43;;;4.00;;
42754;SDS011;28407;51.830;5.684;2023-08-30T03:53:57;4.95;;;3.72;;
42754;SDS011;28407;51.830;5.684;2023-08-30T03:55:58;5.15;;;3.72;;
42754;SDS011;28407;51.830;5.684;2023-08-30T03:57:59;7.03;;;4.22;;
42754;SDS011;28407;51.830;5.684;2023-08-30T04:00:00;5.00;;;3.85;;
42754;SDS011;28407;51.830;5.684;2023-08-30T04:02:00;5.15;;;4.05;;
42754;SDS011;28407;51.830;5.684;2023-08-30T04:04:01;6.13;;;4.70;;
42754;SDS011;28407;51.830;5.684;2023-08-30T04:06:02;5.40;;;4.30;;
42754;SDS011;28407;51.830;5.684;2023-08-30T04:08:05;6.20;;;3.78;;
42754;SDS011;28407;51.830;5.684;2023-08-30T04:10:07;5.72;;;4.20;;
42754;SDS011;28407;51.830;5.684;2023-08-30T04:12:08;5.30;;;3.83;;
42754;SDS011;28407;51.830;5.684;2023-08-30T04:14:09;7.82;;;4.10;;
42754;SDS011;28407;51.830;5.684;2023-08-30T04:16:10;5.03;;;4.10;;
42754;SDS011;28407;51.830;5.684;2023-08-30T04:18:11;5.72;;;4.13;;
42754;SDS011;28407;51.830;5.684;2023-08-30T04:20:13;4.88;;;3.80;;
42754;SDS011;28407;51.830;5.684;2023-08-30T04:22:13;6.60;;;4.93;;
42754;SDS011;28407;51.830;5.684;2023-08-30T04:24:15;6.10;;;3.90;;
42754;SDS011;28407;51.830;5.684;2023-08-30T04:26:16;5.95;;;4.13;;
42754;SDS011;28407;51.830;5.684;2023-08-30T04:28:16;5.22;;;3.85;;
42754;SDS011;28407;51.830;5.684;2023-08-30T04:30:18;4.88;;;4.07;;
42754;SDS011;28407;51.830;5.684;2023-08-30T04:32:19;5.25;;;4.05;;
42754;SDS011;28407;51.830;5.684;2023-08-30T04:34:20;5.45;;;4.35;;
42754;SDS011;28407;51.830;5.684;2023-08-30T04:36:22;5.78;;;4.10;;
42754;SDS011;28407;51.830;5.684;2023-08-30T04:38:23;5.97;;;4.25;;
42754;SDS011;28407;51.830;5.684;2023-08-30T04:40:24;5.45;;;4.22;;
42754;SDS011;28407;51.830;5.684;2023-08-30T04:42:24;5.38;;;3.92;;
42754;SDS011;28407;51.830;5.684;2023-08-30T04:44:25;5.72;;;4.90;;
42754;SDS011;28407;51.830;5.684;2023-08-30T04:48:28;5.05;;;3.63;;
42754;SDS011;28407;51.830;5.684;2023-08-30T04:50:29;5.70;;;3.83;;
42754;SDS011;28407;51.830;5.684;2023-08-30T04:52:30;4.78;;;3.45;;
42754;SDS011;28407;51.830;5.684;2023-08-30T04:54:31;6.10;;;4.90;;
42754;SDS011;28407;51.830;5.684;2023-08-30T04:56:32;6.72;;;5.18;;
42754;SDS011;28407;51.830;5.684;2023-08-30T04:58:33;6.95;;;4.88;;
42754;SDS011;28407;51.830;5.684;2023-08-30T05:00:34;4.63;;;3.70;;
42754;SDS011;28407;51.830;5.684;2023-08-30T05:02:36;5.28;;;4.57;;
42754;SDS011;28407;51.830;5.684;2023-08-30T05:04:43;6.00;;;4.32;;
42754;SDS011;28407;51.830;5.684;2023-08-30T05:06:44;4.40;;;3.70;;
42754;SDS011;28407;51.830;5.684;2023-08-30T05:08:45;5.53;;;4.20;;
42754;SDS011;28407;51.830;5.684;2023-08-30T05:10:46;6.70;;;3.85;;
42754;SDS011;28407;51.830;5.684;2023-08-30T05:12:47;5.88;;;3.53;;
42754;SDS011;28407;51.830;5.684;2023-08-30T05:14:51;7.32;;;4.65;;
42754;SDS011;28407;51.830;5.684;2023-08-30T05:16:52;5.78;;;4.28;;
42754;SDS011;28407;51.830;5.684;2023-08-30T05:18:53;4.82;;;3.80;;
42754;SDS011;28407;51.830;5.684;2023-08-30T05:20:54;5.25;;;3.65;;
42754;SDS011;28407;51.830;5.684;2023-08-30T05:22:54;6.22;;;4.85;;
42754;SDS011;28407;51.830;5.684;2023-08-30T05:24:55;8.82;;;4.45;;
42754;SDS011;28407;51.830;5.684;2023-08-30T05:26:56;8.30;;;3.80;;
42754;SDS011;28407;51.830;5.684;2023-08-30T05:28:59;5.75;;;4.18;;
42754;SDS011;28407;51.830;5.684;2023-08-30T05:31:01;4.97;;;3.95;;
42754;SDS011;28407;51.830;5.684;2023-08-30T05:33:10;6.45;;;4.55;;
42754;SDS011;28407;51.830;5.684;2023-08-30T05:35:36;7.20;;;4.18;;
42754;SDS011;28407;51.830;5.684;2023-08-30T05:37:40;5.78;;;4.40;;
42754;SDS011;28407;51.830;5.684;2023-08-30T05:39:53;5.50;;;4.13;;
42754;SDS011;28407;51.830;5.684;2023-08-30T05:41:54;5.45;;;4.25;;
42754;SDS011;28407;51.830;5.684;2023-08-30T05:43:55;5.32;;;4.05;;
42754;SDS011;28407;51.830;5.684;2023-08-30T05:45:55;6.47;;;4.32;;
42754;SDS011;28407;51.830;5.684;2023-08-30T05:48:01;7.00;;;4.45;;
42754;SDS011;28407;51.830;5.684;2023-08-30T05:50:04;5.13;;;4.57;;
42754;SDS011;28407;51.830;5.684;2023-08-30T05:52:05;6.32;;;4.20;;
42754;SDS011;28407;51.830;5.684;2023-08-30T05:54:06;6.22;;;4.65;;
42754;SDS011;28407;51.830;5.684;2023-08-30T05:56:07;7.40;;;4.22;;
42754;SDS011;28407;51.830;5.684;2023-08-30T05:58:08;5.45;;;4.25;;
42754;SDS011;28407;51.830;5.684;2023-08-30T06:00:09;5.63;;;4.57;;
42754;SDS011;28407;51.830;5.684;2023-08-30T06:02:16;6.20;;;5.05;;
42754;SDS011;28407;51.830;5.684;2023-08-30T06:04:17;7.15;;;4.57;;
42754;SDS011;28407;51.830;5.684;2023-08-30T06:06:17;5.97;;;4.85;;
42754;SDS011;28407;51.830;5.684;2023-08-30T06:08:18;7.45;;;4.85;;
42754;SDS011;28407;51.830;5.684;2023-08-30T06:10:19;5.32;;;4.47;;
42754;SDS011;28407;51.830;5.684;2023-08-30T06:12:20;5.55;;;4.07;;
42754;SDS011;28407;51.830;5.684;2023-08-30T06:14:21;5.47;;;4.57;;
42754;SDS011;28407;51.830;5.684;2023-08-30T06:16:22;8.43;;;4.35;;
42754;SDS011;28407;51.830;5.684;2023-08-30T06:18:22;5.70;;;4.75;;
42754;SDS011;28407;51.830;5.684;2023-08-30T06:20:23;6.15;;;4.35;;
42754;SDS011;28407;51.830;5.684;2023-08-30T06:22:24;6.03;;;4.35;;
42754;SDS011;28407;51.830;5.684;2023-08-30T06:24:24;5.75;;;4.25;;
42754;SDS011;28407;51.830;5.684;2023-08-30T06:26:25;5.95;;;4.82;;
42754;SDS011;28407;51.830;5.684;2023-08-30T06:28:26;7.43;;;4.15;;
42754;SDS011;28407;51.830;5.684;2023-08-30T06:30:27;5.90;;;4.47;;
42754;SDS011;28407;51.830;5.684;2023-08-30T06:32:29;5.25;;;4.13;;
42754;SDS011;28407;51.830;5.684;2023-08-30T06:34:30;8.00;;;4.45;;
42754;SDS011;28407;51.830;5.684;2023-08-30T06:36:31;5.32;;;4.25;;
42754;SDS011;28407;51.830;5.684;2023-08-30T06:38:32;6.50;;;4.90;;
42754;SDS011;28407;51.830;5.684;2023-08-30T06:40:33;6.20;;;4.18;;
42754;SDS011;28407;51.830;5.684;2023-08-30T06:42:33;5.82;;;4.47;;
42754;SDS011;28407;51.830;5.684;2023-08-30T06:44:34;5.22;;;4.40;;
42754;SDS011;28407;51.830;5.684;2023-08-30T06:46:35;6.03;;;4.65;;
42754;SDS011;28407;51.830;5.684;2023-08-30T06:48:35;5.47;;;3.88;;
42754;SDS011;28407;51.830;5.684;2023-08-30T06:50:36;6.15;;;4.15;;
42754;SDS011;28407;51.830;5.684;2023-08-30T06:52:36;5.93;;;4.25;;
42754;SDS011;28407;51.830;5.684;2023-08-30T06:54:37;5.57;;;4.05;;
42754;SDS011;28407;51.830;5.684;2023-08-30T06:56:38;4.53;;;3.78;;
42754;SDS011;28407;51.830;5.684;2023-08-30T06:58:38;5.70;;;3.88;;
42754;SDS011;28407;51.830;5.684;2023-08-30T07:00:39;5.32;;;4.07;;
42754;SDS011;28407;51.830;5.684;2023-08-30T07:02:40;5.88;;;4.13;;
42754;SDS011;28407;51.830;5.684;2023-08-30T07:04:44;6.63;;;5.15;;
42754;SDS011;28407;51.830;5.684;2023-08-30T07:06:45;5.55;;;4.75;;
42754;SDS011;28407;51.830;5.684;2023-08-30T07:08:46;5.55;;;4.45;;
42754;SDS011;28407;51.830;5.684;2023-08-30T07:10:47;5.97;;;4.63;;
42754;SDS011;28407;51.830;5.684;2023-08-30T07:12:47;5.10;;;3.42;;
42754;SDS011;28407;51.830;5.684;2023-08-30T07:14:48;6.90;;;4.65;;
42754;SDS011;28407;51.830;5.684;2023-08-30T07:16:49;5.93;;;4.00;;
42754;SDS011;28407;51.830;5.684;2023-08-30T07:18:50;6.47;;;4.28;;
42754;SDS011;28407;51.830;5.684;2023-08-30T07:20:51;4.75;;;4.10;;
42754;SDS011;28407;51.830;5.684;2023-08-30T07:22:51;5.00;;;3.80;;
42754;SDS011;28407;51.830;5.684;2023-08-30T07:24:52;5.53;;;3.95;;
42754;SDS011;28407;51.830;5.684;2023-08-30T07:26:53;5.93;;;4.13;;
42754;SDS011;28407;51.830;5.684;2023-08-30T07:28:53;5.93;;;4.50;;
42754;SDS011;28407;51.830;5.684;2023-08-30T07:31:01;6.32;;;4.43;;
42754;SDS011;28407;51.830;5.684;2023-08-30T07:33:02;4.88;;;3.45;;
42754;SDS011;28407;51.830;5.684;2023-08-30T07:35:04;5.55;;;3.67;;
42754;SDS011;28407;51.830;5.684;2023-08-30T07:37:16;6.20;;;4.22;;
42754;SDS011;28407;51.830;5.684;2023-08-30T07:39:18;4.47;;;3.85;;
42754;SDS011;28407;51.830;5.684;2023-08-30T07:41:19;6.60;;;4.03;;
42754;SDS011;28407;51.830;5.684;2023-08-30T07:43:19;5.05;;;3.53;;
42754;SDS011;28407;51.830;5.684;2023-08-30T07:45:21;4.70;;;3.40;;
42754;SDS011;28407;51.830;5.684;2023-08-30T07:47:21;5.67;;;4.00;;
42754;SDS011;28407;51.830;5.684;2023-08-30T07:49:22;5.30;;;3.47;;
42754;SDS011;28407;51.830;5.684;2023-08-30T07:51:23;6.07;;;4.18;;
42754;SDS011;28407;51.830;5.684;2023-08-30T07:53:23;4.53;;;3.45;;
42754;SDS011;28407;51.830;5.684;2023-08-30T07:55:24;4.78;;;3.40;;
42754;SDS011;28407;51.830;5.684;2023-08-30T07:57:25;4.47;;;3.78;;
42754;SDS011;28407;51.830;5.684;2023-08-30T07:59:25;4.47;;;3.58;;
42754;SDS011;28407;51.830;5.684;2023-08-30T08:01:26;5.43;;;3.70;;
42754;SDS011;28407;51.830;5.684;2023-08-30T08:03:27;5.20;;;3.92;;
42754;SDS011;28407;51.830;5.684;2023-08-30T08:05:27;6.00;;;4.63;;
42754;SDS011;28407;51.830;5.684;2023-08-30T08:07:28;4.60;;;3.83;;
42754;SDS011;28407;51.830;5.684;2023-08-30T08:09:29;4.18;;;3.47;;
42754;SDS011;28407;51.830;5.684;2023-08-30T08:11:30;5.55;;;3.70;;
42754;SDS011;28407;51.830;5.684;2023-08-30T08:13:30;4.68;;;3.50;;
42754;SDS011;28407;51.830;5.684;2023-08-30T08:15:31;5.07;;;3.65;;
42754;SDS011;28407;51.830;5.684;2023-08-30T08:17:32;5.15;;;3.33;;
42754;SDS011;28407;51.830;5.684;2023-08-30T08:19:33;4.88;;;3.80;;
42754;SDS011;28407;51.830;5.684;2023-08-30T08:21:39;4.53;;;3.50;;
42754;SDS011;28407;51.830;5.684;2023-08-30T08:23:39;4.55;;;3.38;;
42754;SDS011;28407;51.830;5.684;2023-08-30T08:25:40;5.80;;;3.58;;
42754;SDS011;28407;51.830;5.684;2023-08-30T08:27:40;5.10;;;4.10;;
42754;SDS011;28407;51.830;5.684;2023-08-30T08:29:41;5.07;;;4.18;;
42754;SDS011;28407;51.830;5.684;2023-08-30T08:31:42;5.53;;;4.22;;
42754;SDS011;28407;51.830;5.684;2023-08-30T08:33:43;5.03;;;3.60;;
42754;SDS011;28407;51.830;5.684;2023-08-30T08:35:44;4.60;;;3.42;;
42754;SDS011;28407;51.830;5.684;2023-08-30T08:37:44;4.32;;;3.90;;
42754;SDS011;28407;51.830;5.684;2023-08-30T08:39:46;5.00;;;4.03;;
42754;SDS011;28407;51.830;5.684;2023-08-30T08:41:47;8.13;;;4.40;;
42754;SDS011;28407;51.830;5.684;2023-08-30T08:43:48;5.68;;;4.25;;
42754;SDS011;28407;51.830;5.684;2023-08-30T08:45:50;5.10;;;3.80;;
42754;SDS011;28407;51.830;5.684;2023-08-30T08:47:51;5.05;;;3.65;;
42754;SDS011;28407;51.830;5.684;2023-08-30T08:49:51;5.53;;;4.18;;
42754;SDS011;28407;51.830;5.684;2023-08-30T08:51:52;4.35;;;3.58;;
42754;SDS011;28407;51.830;5.684;2023-08-30T08:53:54;6.60;;;3.72;;
42754;SDS011;28407;51.830;5.684;2023-08-30T08:56:01;4.72;;;3.35;;
42754;SDS011;28407;51.830;5.684;2023-08-30T08:58:05;5.60;;;4.05;;
42754;SDS011;28407;51.830;5.684;2023-08-30T09:00:06;5.00;;;3.63;;
42754;SDS011;28407;51.830;5.684;2023-08-30T09:02:10;5.15;;;3.30;;
42754;SDS011;28407;51.830;5.684;2023-08-30T09:04:13;4.38;;;3.15;;
42754;SDS011;28407;51.830;5.684;2023-08-30T09:06:14;5.22;;;3.55;;
42754;SDS011;28407;51.830;5.684;2023-08-30T09:08:15;4.35;;;3.10;;
42754;SDS011;28407;51.830;5.684;2023-08-30T09:10:16;3.80;;;3.00;;
42754;SDS011;28407;51.830;5.684;2023-08-30T09:12:17;3.70;;;3.05;;
42754;SDS011;28407;51.830;5.684;2023-08-30T09:14:18;3.42;;;2.72;;
42754;SDS011;28407;51.830;5.684;2023-08-30T09:16:19;3.70;;;2.95;;
42754;SDS011;28407;51.830;5.684;2023-08-30T09:18:20;3.40;;;2.70;;
42754;SDS011;28407;51.830;5.684;2023-08-30T09:20:21;3.40;;;2.58;;
42754;SDS011;28407;51.830;5.684;2023-08-30T09:22:21;3.50;;;2.70;;
42754;SDS011;28407;51.830;5.684;2023-08-30T09:24:22;5.50;;;2.97;;
42754;SDS011;28407;51.830;5.684;2023-08-30T09:26:24;3.95;;;3.20;;
42754;SDS011;28407;51.830;5.684;2023-08-30T09:28:25;3.73;;;2.27;;
42754;SDS011;28407;51.830;5.684;2023-08-30T09:30:26;3.43;;;2.37;;
42754;SDS011;28407;51.830;5.684;2023-08-30T09:32:27;2.97;;;2.30;;
42754;SDS011;28407;51.830;5.684;2023-08-30T09:34:28;3.70;;;2.88;;
42754;SDS011;28407;51.830;5.684;2023-08-30T09:36:35;3.42;;;2.83;;
42754;SDS011;28407;51.830;5.684;2023-08-30T09:38:37;2.40;;;1.80;;
42754;SDS011;28407;51.830;5.684;2023-08-30T09:40:37;4.30;;;1.92;;
42754;SDS011;28407;51.830;5.684;2023-08-30T09:42:41;3.72;;;1.92;;
42754;SDS011;28407;51.830;5.684;2023-08-30T09:44:42;3.28;;;2.42;;
42754;SDS011;28407;51.830;5.684;2023-08-30T09:46:46;4.35;;;2.30;;
42754;SDS011;28407;51.830;5.684;2023-08-30T09:48:54;3.67;;;2.38;;
42754;SDS011;28407;51.830;5.684;2023-08-30T09:50:55;2.85;;;2.42;;
42754;SDS011;28407;51.830;5.684;2023-08-30T09:52:58;3.17;;;2.47;;
42754;SDS011;28407;51.830;5.684;2023-08-30T09:55:01;3.03;;;2.42;;
42754;SDS011;28407;51.830;5.684;2023-08-30T09:57:03;3.95;;;3.30;;
42754;SDS011;28407;51.830;5.684;2023-08-30T09:59:04;3.40;;;2.30;;
42754;SDS011;28407;51.830;5.684;2023-08-30T10:01:05;4.10;;;2.65;;
42754;SDS011;28407;51.830;5.684;2023-08-30T10:03:07;3.85;;;2.92;;
42754;SDS011;28407;51.830;5.684;2023-08-30T10:05:08;3.88;;;2.85;;
42754;SDS011;28407;51.830;5.684;2023-08-30T10:07:09;3.65;;;2.97;;
42754;SDS011;28407;51.830;5.684;2023-08-30T10:09:10;4.70;;;3.08;;
42754;SDS011;28407;51.830;5.684;2023-08-30T10:11:11;3.92;;;2.92;;
42754;SDS011;28407;51.830;5.684;2023-08-30T10:13:13;4.28;;;3.38;;
42754;SDS011;28407;51.830;5.684;2023-08-30T10:15:15;5.82;;;4.38;;
42754;SDS011;28407;51.830;5.684;2023-08-30T10:17:17;3.92;;;3.50;;
42754;SDS011;28407;51.830;5.684;2023-08-30T10:19:24;4.32;;;2.85;;
42754;SDS011;28407;51.830;5.684;2023-08-30T10:21:27;4.35;;;3.53;;
42754;SDS011;28407;51.830;5.684;2023-08-30T10:23:29;4.47;;;3.55;;
42754;SDS011;28407;51.830;5.684;2023-08-30T10:25:30;4.55;;;3.38;;
42754;SDS011;28407;51.830;5.684;2023-08-30T10:29:35;3.70;;;3.30;;
42754;SDS011;28407;51.830;5.684;2023-08-30T10:31:38;5.10;;;3.88;;
42754;SDS011;28407;51.830;5.684;2023-08-30T10:33:49;4.95;;;4.05;;
42754;SDS011;28407;51.830;5.684;2023-08-30T10:35:52;4.72;;;4.05;;
42754;SDS011;28407;51.830;5.684;2023-08-30T10:37:56;4.18;;;3.70;;
42754;SDS011;28407;51.830;5.684;2023-08-30T10:39:59;4.50;;;3.78;;
42754;SDS011;28407;51.830;5.684;2023-08-30T10:42:10;4.15;;;3.75;;
42754;SDS011;28407;51.830;5.684;2023-08-30T10:44:13;6.28;;;4.00;;
42754;SDS011;28407;51.830;5.684;2023-08-30T10:46:14;4.50;;;3.70;;
42754;SDS011;28407;51.830;5.684;2023-08-30T10:48:15;4.63;;;4.00;;
42754;SDS011;28407;51.830;5.684;2023-08-30T10:50:17;5.03;;;4.28;;
42754;SDS011;28407;51.830;5.684;2023-08-30T10:52:27;4.28;;;3.58;;
42754;SDS011;28407;51.830;5.684;2023-08-30T10:54:36;5.63;;;3.80;;
42754;SDS011;28407;51.830;5.684;2023-08-30T10:58:51;4.60;;;3.90;;
42754;SDS011;28407;51.830;5.684;2023-08-30T11:00:52;4.18;;;3.70;;
42754;SDS011;28407;51.830;5.684;2023-08-30T11:02:55;4.70;;;4.07;;
42754;SDS011;28407;51.830;5.684;2023-08-30T11:04:57;5.17;;;3.53;;
42754;SDS011;28407;51.830;5.684;2023-08-30T11:06:58;3.80;;;3.40;;
42754;SDS011;28407;51.830;5.684;2023-08-30T11:08:59;4.13;;;3.67;;
42754;SDS011;28407;51.830;5.684;2023-08-30T11:11:07;3.72;;;3.17;;
42754;SDS011;28407;51.830;5.684;2023-08-30T11:13:14;3.63;;;3.17;;
42754;SDS011;28407;51.830;5.684;2023-08-30T11:15:21;3.75;;;3.30;;
42754;SDS011;28407;51.830;5.684;2023-08-30T11:17:22;3.95;;;3.00;;
42754;SDS011;28407;51.830;5.684;2023-08-30T11:19:23;3.63;;;2.95;;
42754;SDS011;28407;51.830;5.684;2023-08-30T11:21:24;3.92;;;3.08;;
42754;SDS011;28407;51.830;5.684;2023-08-30T11:23:24;3.00;;;2.15;;
42754;SDS011;28407;51.830;5.684;2023-08-30T11:25:25;7.00;;;3.90;;
42754;SDS011;28407;51.830;5.684;2023-08-30T11:27:26;3.67;;;2.20;;
42754;SDS011;28407;51.830;5.684;2023-08-30T11:29:27;2.10;;;1.90;;
42754;SDS011;28407;51.830;5.684;2023-08-30T11:31:27;3.67;;;2.05;;
42754;SDS011;28407;51.830;5.684;2023-08-30T11:33:29;2.88;;;2.08;;
42754;SDS011;28407;51.830;5.684;2023-08-30T11:35:30;3.05;;;1.90;;
42754;SDS011;28407;51.830;5.684;2023-08-30T11:37:31;2.08;;;1.77;;
42754;SDS011;28407;51.830;5.684;2023-08-30T11:39:32;2.63;;;2.08;;
42754;SDS011;28407;51.830;5.684;2023-08-30T11:41:34;2.83;;;1.95;;
42754;SDS011;28407;51.830;5.684;2023-08-30T11:43:38;3.28;;;2.50;;
42754;SDS011;28407;51.830;5.684;2023-08-30T11:45:40;2.45;;;2.10;;
42754;SDS011;28407;51.830;5.684;2023-08-30T11:47:40;3.45;;;1.83;;
42754;SDS011;28407;51.830;5.684;2023-08-30T11:49:41;1.58;;;1.17;;
42754;SDS011;28407;51.830;5.684;2023-08-30T11:51:42;3.63;;;1.50;;
42754;SDS011;28407;51.830;5.684;2023-08-30T11:53:43;3.97;;;1.40;;
42754;SDS011;28407;51.830;5.684;2023-08-30T11:55:44;2.72;;;1.50;;
42754;SDS011;28407;51.830;5.684;2023-08-30T11:57:48;1.95;;;1.15;;
42754;SDS011;28407;51.830;5.684;2023-08-30T11:59:50;2.10;;;1.63;;
42754;SDS011;28407;51.830;5.684;2023-08-30T12:01:53;2.42;;;1.25;;
42754;SDS011;28407;51.830;5.684;2023-08-30T12:03:54;1.92;;;1.58;;
42754;SDS011;28407;51.830;5.684;2023-08-30T12:05:56;2.28;;;1.27;;
42754;SDS011;28407;51.830;5.684;2023-08-30T12:07:57;3.95;;;1.80;;
42754;SDS011;28407;51.830;5.684;2023-08-30T12:10:05;3.55;;;1.63;;
42754;SDS011;28407;51.830;5.684;2023-08-30T12:12:08;2.80;;;1.60;;
42754;SDS011;28407;51.830;5.684;2023-08-30T12:14:13;2.75;;;1.30;;
42754;SDS011;28407;51.830;5.684;2023-08-30T12:16:17;3.72;;;1.52;;
42754;SDS011;28407;51.830;5.684;2023-08-30T12:18:28;2.50;;;1.20;;
42754;SDS011;28407;51.830;5.684;2023-08-30T12:20:31;3.25;;;1.30;;
42754;SDS011;28407;51.830;5.684;2023-08-30T12:22:38;3.10;;;2.28;;
42754;SDS011;28407;51.830;5.684;2023-08-30T12:24:42;3.38;;;1.90;;
42754;SDS011;28407;51.830;5.684;2023-08-30T12:26:43;2.83;;;1.65;;
42754;SDS011;28407;51.830;5.684;2023-08-30T12:28:44;2.45;;;1.65;;
42754;SDS011;28407;51.830;5.684;2023-08-30T12:30:45;2.90;;;1.80;;
42754;SDS011;28407;51.830;5.684;2023-08-30T12:32:46;3.42;;;2.08;;